createdAt,value
2019-04-11T00:01:32.537Z,101206.27
2019-04-11T00:03:51.466Z,101204.96
2019-04-11T00:06:19.788Z,101207.02
2019-04-11T00:08:48.193Z,101213.27
2019-04-11T00:11:17.464Z,101218.61
2019-04-11T00:13:45.945Z,101216.47
2019-04-11T00:16:15.245Z,101220.27
2019-04-11T00:18:43.519Z,101228.30
2019-04-11T00:21:12.842Z,101232.05
2019-04-11T00:23:41.191Z,101225.48
2019-04-11T00:26:09.502Z,101230.81
2019-04-11T00:28:38.063Z,101230.65
2019-04-11T00:31:06.429Z,101232.81
2019-04-11T00:33:34.667Z,101234.13
2019-04-11T00:36:04.108Z,101227.67
2019-04-11T00:38:32.627Z,101229.38
2019-04-11T00:41:01.662Z,101232.42
2019-04-11T00:43:36.802Z,101231.78
2019-04-11T00:46:01.496Z,101239.39
2019-04-11T00:48:30.226Z,101231.95
2019-04-11T00:50:59.317Z,101239.48
2019-04-11T00:53:27.844Z,101234.11
2019-04-11T00:55:56.141Z,101239.56
2019-04-11T00:58:25.561Z,101232.80
2019-04-11T01:00:55.336Z,101239.79
2019-04-11T01:03:24.281Z,101243.13
2019-04-11T01:05:53.999Z,101246.52
2019-04-11T01:08:23.965Z,101247.61
2019-04-11T01:10:52.267Z,101244.17
2019-04-11T01:13:20.960Z,101248.56
2019-04-11T01:16:07.013Z,101249.76
2019-04-11T01:18:36.190Z,101251.00
2019-04-11T01:21:04.557Z,101249.52
2019-04-11T01:23:33.242Z,101246.63
2019-04-11T01:26:01.621Z,101245.33
2019-04-11T01:28:31.005Z,101251.55
2019-04-11T01:31:01.124Z,101249.05
2019-04-11T01:33:29.712Z,101251.91
2019-04-11T01:35:57.979Z,101253.98
2019-04-11T01:38:26.608Z,101253.98
2019-04-11T01:40:56.091Z,101256.77
2019-04-11T01:43:24.385Z,101254.70
2019-04-11T01:45:53.591Z,101252.68
2019-04-11T01:48:23.785Z,101253.16
2019-04-11T01:50:52.071Z,101259.45
2019-04-11T01:53:20.719Z,101254.70
2019-04-11T01:55:50.437Z,101265.05
2019-04-11T01:58:18.797Z,101269.03
2019-04-11T02:00:50.815Z,101262.89
2019-04-11T02:03:21.195Z,101262.34
2019-04-11T02:05:49.591Z,101267.27
2019-04-11T02:08:17.890Z,101267.20
2019-04-11T02:10:46.565Z,101275.55
2019-04-11T02:13:15.399Z,101283.36
2019-04-11T02:15:44.214Z,101280.65
2019-04-11T02:18:13.111Z,101276.73
2019-04-11T02:20:41.376Z,101280.92
2019-04-11T02:23:21.456Z,101287.14
2019-04-11T02:26:10.076Z,101288.80
2019-04-11T02:28:40.990Z,101288.60
2019-04-11T02:31:11.551Z,101294.57
2019-04-11T02:33:41.408Z,101289.91
2019-04-11T02:36:11.755Z,101288.95
2019-04-11T02:38:41.264Z,101289.23
2019-04-11T02:41:10.606Z,101290.83
2019-04-11T02:43:42.139Z,101288.48
2019-04-11T02:46:19.851Z,101288.13
2019-04-11T02:48:40.660Z,101291.50
2019-04-11T02:51:09.848Z,101293.53
2019-04-11T02:53:38.937Z,101289.44
2019-04-11T02:56:09.317Z,101298.65
2019-04-11T02:58:39.087Z,101292.69
2019-04-11T03:01:09.591Z,101299.12
2019-04-11T03:03:39.420Z,101296.59
2019-04-11T03:06:09.247Z,101294.45
2019-04-11T03:08:38.796Z,101297.59
2019-04-11T03:11:10.676Z,101299.83
2019-04-11T03:13:38.440Z,101299.06
2019-04-11T03:16:23.804Z,101298.98
2019-04-11T03:18:55.010Z,101306.86
2019-04-11T03:21:13.771Z,101300.81
2019-04-11T03:23:39.501Z,101308.09
2019-04-11T03:26:09.763Z,101310.76
2019-04-11T03:28:38.925Z,101309.46
2019-04-11T03:31:42.259Z,101317.91
2019-04-11T03:39:02.518Z,101308.06
2019-04-11T03:41:25.291Z,101313.98
2019-04-11T03:43:50.864Z,101319.28
2019-04-11T03:46:29.202Z,101315.91
2019-04-11T03:48:53.369Z,101319.52
2019-04-11T03:51:11.597Z,101317.19
2019-04-11T03:53:41.157Z,101319.42
2019-04-11T03:56:12.007Z,101320.09
2019-04-11T03:58:41.797Z,101324.45
2019-04-11T04:01:11.601Z,101323.09
2019-04-11T04:03:42.400Z,101324.03
2019-04-11T04:06:10.774Z,101332.60
2019-04-11T04:08:39.266Z,101331.10
2019-04-11T04:11:12.550Z,101335.23
2019-04-11T04:13:47.604Z,101345.60
2019-04-11T04:16:40.361Z,101345.47
2019-04-11T04:19:22.680Z,101344.47
2019-04-11T04:21:55.179Z,101355.70
2019-04-11T04:24:37.896Z,101350.23
2019-04-11T04:27:07.032Z,101353.44
2019-04-11T04:29:37.030Z,101355.92
2019-04-11T04:32:05.980Z,101357.85
2019-04-11T04:34:36.057Z,101360.15
2019-04-11T04:37:05.897Z,101363.12
2019-04-11T04:39:37.027Z,101365.09
2019-04-11T04:42:12.629Z,101366.53
2019-04-11T04:44:35.764Z,101374.70
2019-04-11T04:47:13.630Z,101372.87
2019-04-11T04:49:34.557Z,101374.17
2019-04-11T04:52:05.918Z,101371.47
2019-04-11T04:54:36.147Z,101379.84
2019-04-11T04:57:05.028Z,101377.97
2019-04-11T04:59:34.127Z,101387.94
2019-04-11T05:02:03.917Z,101386.23
2019-04-11T05:04:33.747Z,101390.30
2019-04-11T05:07:03.234Z,101396.44
2019-04-11T05:09:32.060Z,101392.67
2019-04-11T05:12:01.414Z,101399.59
2019-04-11T05:14:31.440Z,101396.45
2019-04-11T05:17:00.450Z,101405.83
2019-04-11T05:19:29.953Z,101404.77
2019-04-11T05:21:59.774Z,101403.67
2019-04-11T05:24:28.517Z,101407.88
2019-04-11T05:26:57.880Z,101411.21
2019-04-11T05:29:27.187Z,101412.81
2019-04-11T05:31:56.668Z,101417.13
2019-04-11T05:34:25.853Z,101420.56
2019-04-11T05:36:55.211Z,101423.86
2019-04-11T05:39:23.995Z,101422.49
2019-04-11T05:41:52.294Z,101422.79
2019-04-11T05:44:20.967Z,101428.36
2019-04-11T05:46:55.815Z,101426.89
2019-04-11T05:49:22.827Z,101423.78
2019-04-11T05:51:58.137Z,101426.65
2019-04-11T05:54:28.109Z,101420.31
2019-04-11T05:56:59.562Z,101428.12
2019-04-11T05:59:30.602Z,101423.31
2019-04-11T06:02:10.923Z,101427.41
2019-04-11T06:04:40.981Z,101422.81
2019-04-11T06:07:12.768Z,101425.98
2019-04-11T06:09:44.072Z,101427.94
2019-04-11T06:12:30.274Z,101424.64
2019-04-11T06:15:06.218Z,101429.76
2019-04-11T06:17:34.499Z,101437.87
2019-04-11T06:20:08.247Z,101441.95
2019-04-11T06:22:38.528Z,101441.00
2019-04-11T06:25:23.615Z,101448.55
2019-04-11T06:27:55.791Z,101450.30
2019-04-11T06:30:26.382Z,101455.00
2019-04-11T06:33:12.240Z,101457.60
2019-04-11T06:35:52.248Z,101458.07
2019-04-11T06:38:22.662Z,101457.73
2019-04-11T06:40:58.364Z,101458.97
2019-04-11T06:43:44.535Z,101462.41
2019-04-11T06:46:18.730Z,101460.45
2019-04-11T06:48:55.910Z,101462.42
2019-04-11T06:51:26.123Z,101462.52
2019-04-11T06:54:12.743Z,101468.11
2019-04-11T06:56:45.508Z,101468.03
2019-04-11T06:59:16.389Z,101473.61
2019-04-11T07:01:46.016Z,101478.45
2019-04-11T07:04:15.954Z,101478.45
2019-04-11T07:06:46.039Z,101491.60
2019-04-11T07:09:16.705Z,101486.45
2019-04-11T07:11:48.409Z,101490.76
2019-04-11T07:14:24.788Z,101487.56
2019-04-11T07:17:13.453Z,101483.94
2019-04-11T07:20:00.123Z,101487.37
2019-04-11T07:22:46.710Z,101484.87
2019-04-11T07:25:22.610Z,101488.13
2019-04-11T07:27:53.221Z,101489.23
2019-04-11T07:30:39.699Z,101483.26
2019-04-11T07:33:26.714Z,101496.38
2019-04-11T07:36:14.543Z,101496.30
2019-04-11T07:38:59.888Z,101489.11
2019-04-11T07:41:39.935Z,101494.14
2019-04-11T07:44:10.956Z,101495.42
2019-04-11T07:46:58.241Z,101492.39
2019-04-11T07:49:35.046Z,101494.39
2019-04-11T07:52:06.722Z,101495.42
2019-04-11T07:54:35.442Z,101494.36
2019-04-11T07:57:05.523Z,101492.19
2019-04-11T07:59:37.884Z,101492.42
2019-04-11T08:02:08.792Z,101495.11
2019-04-11T08:04:55.624Z,101502.19
2019-04-11T08:07:42.515Z,101496.67
2019-04-11T08:10:16.224Z,101501.50
2019-04-11T08:12:46.181Z,101501.50
2019-04-11T08:15:34.211Z,101502.42
2019-04-11T08:18:14.622Z,101496.42
2019-04-11T08:20:57.454Z,101499.29
2019-04-11T08:23:27.699Z,101501.64
2019-04-11T08:26:14.043Z,101504.17
2019-04-11T08:28:43.503Z,101505.98
2019-04-11T08:31:22.000Z,101503.98
2019-04-11T08:33:53.043Z,101511.98
2019-04-11T08:36:24.042Z,101509.38
2019-04-11T08:38:53.026Z,101519.69
2019-04-11T08:41:23.237Z,101520.52
2019-04-11T08:43:51.665Z,101523.55
2019-04-11T08:46:22.615Z,101517.63
2019-04-11T08:49:09.795Z,101533.39
2019-04-11T08:51:39.121Z,101525.18
2019-04-11T08:54:25.819Z,101529.39
2019-04-11T08:56:55.662Z,101521.75
2019-04-11T08:59:31.341Z,101529.75
2019-04-11T09:02:00.404Z,101535.73
2019-04-11T09:04:46.408Z,101541.47
2019-04-11T09:07:17.020Z,101538.63
2019-04-11T09:10:04.106Z,101532.91
2019-04-11T09:12:32.418Z,101534.39
2019-04-11T09:15:05.399Z,101535.15
2019-04-11T09:17:36.558Z,101527.73
2019-04-11T09:20:24.720Z,101532.67
2019-04-11T09:22:55.465Z,101520.88
2019-04-11T09:25:41.633Z,101528.00
2019-04-11T09:28:18.000Z,101525.64
2019-04-11T09:30:57.090Z,101523.50
2019-04-11T09:33:39.710Z,101513.88
2019-04-11T09:36:29.163Z,101515.45
2019-04-11T09:39:08.863Z,101513.83
2019-04-11T09:41:55.032Z,101520.54
2019-04-11T09:44:24.993Z,101514.49
2019-04-11T09:47:01.360Z,101514.52
2019-04-11T09:49:37.683Z,101506.05
2019-04-11T09:52:08.764Z,101509.61
2019-04-11T09:54:54.682Z,101504.59
2019-04-11T09:57:30.203Z,101507.35
2019-04-11T10:00:12.364Z,101504.27
2019-04-11T10:02:48.331Z,101508.77
2019-04-11T10:05:22.366Z,101509.16
2019-04-11T10:07:52.665Z,101509.97
2019-04-11T10:10:28.917Z,101505.90
2019-04-11T10:13:18.620Z,101513.03
2019-04-11T10:15:51.609Z,101504.41
2019-04-11T10:18:36.576Z,101504.02
2019-04-11T10:21:01.279Z,101512.34
2019-04-11T10:23:32.567Z,101505.42
2019-04-11T10:26:01.462Z,101520.81
2019-04-11T10:28:31.466Z,101503.86
2019-04-11T10:31:10.653Z,101509.61
2019-04-11T10:33:50.022Z,101512.01
2019-04-11T10:36:23.145Z,101506.11
2019-04-11T10:39:09.696Z,101504.86
2019-04-11T10:41:40.042Z,101506.86
2019-04-11T10:44:09.664Z,101508.90
2019-04-11T10:46:56.331Z,101511.36
2019-04-11T10:49:30.387Z,101510.82
2019-04-11T10:52:00.440Z,101511.53
2019-04-11T10:54:31.037Z,101512.44
2019-04-11T10:57:05.599Z,101512.19
2019-04-11T10:59:35.654Z,101518.58
2019-04-11T11:02:06.646Z,101523.84
2019-04-11T11:04:39.010Z,101517.39
2019-04-11T11:07:10.188Z,101521.88
2019-04-11T11:09:42.040Z,101520.69
2019-04-11T11:12:21.296Z,101519.50
2019-04-11T11:15:07.207Z,101514.17
2019-04-11T11:18:20.506Z,101526.06
2019-04-11T11:20:39.080Z,101529.73
2019-04-11T11:23:21.128Z,101532.02
2019-04-11T11:25:57.036Z,101527.60
2019-04-11T11:28:26.991Z,101522.72
2019-04-11T11:31:03.202Z,101529.25
2019-04-11T11:33:34.108Z,101524.81
2019-04-11T11:36:21.365Z,101533.77
2019-04-11T11:38:52.298Z,101522.06
2019-04-11T11:41:38.979Z,101533.34
2019-04-11T11:44:09.736Z,101524.39
2019-04-11T11:46:59.861Z,101536.16
2019-04-11T11:49:41.783Z,101532.30
2019-04-11T11:52:03.713Z,101533.06
2019-04-11T11:54:33.666Z,101540.01
2019-04-11T11:57:04.591Z,101535.82
2019-04-11T11:59:48.205Z,101525.88
2019-04-11T12:02:28.470Z,101526.59
2019-04-11T12:05:02.492Z,101527.80
2019-04-11T12:07:37.799Z,101527.52
2019-04-11T12:10:17.377Z,101526.54
2019-04-11T12:13:08.023Z,101527.41
2019-04-11T12:15:53.332Z,101528.47
2019-04-11T12:18:26.747Z,101531.14
2019-04-11T12:21:05.810Z,101524.89
2019-04-11T12:23:46.646Z,101528.24
2019-04-11T12:26:07.628Z,101523.96
2019-04-11T12:28:50.030Z,101523.84
2019-04-11T12:31:19.506Z,101522.28
2019-04-11T12:34:06.210Z,101528.66
2019-04-11T12:36:37.049Z,101525.28
2019-04-11T12:39:09.060Z,101520.98
2019-04-11T12:41:39.278Z,101523.73
2019-04-11T12:44:20.835Z,101520.34
2019-04-11T12:46:53.634Z,101530.88
2019-04-11T12:49:26.295Z,101526.61
2019-04-11T12:52:12.301Z,101524.23
2019-04-11T12:54:42.383Z,101524.13
2019-04-11T12:57:28.492Z,101523.36
2019-04-11T13:00:01.173Z,101513.27
2019-04-11T13:02:47.747Z,101523.15
2019-04-11T13:05:17.726Z,101511.03
2019-04-11T13:07:47.647Z,101521.27
2019-04-11T13:10:16.529Z,101524.38
2019-04-11T13:13:01.925Z,101516.02
2019-04-11T13:15:31.866Z,101513.48
2019-04-11T13:18:01.829Z,101518.91
2019-04-11T13:20:43.544Z,101514.73
2019-04-11T13:23:31.894Z,101512.24
2019-04-11T13:26:10.453Z,101507.87
2019-04-11T13:28:40.329Z,101512.66
2019-04-11T13:31:16.580Z,101502.33
2019-04-11T13:33:45.073Z,101504.87
2019-04-11T13:36:27.056Z,101511.73
2019-04-11T13:38:55.643Z,101509.47
2019-04-11T13:41:31.374Z,101510.96
2019-04-11T13:44:00.507Z,101502.97
2019-04-11T13:46:36.607Z,101499.77
2019-04-11T13:49:23.431Z,101502.11
2019-04-11T13:52:02.541Z,101508.02
2019-04-11T13:54:32.474Z,101504.29
2019-04-11T13:57:02.737Z,101495.36
2019-04-11T13:59:35.271Z,101497.75
2019-04-11T14:02:09.116Z,101495.78
2019-04-11T14:04:57.796Z,101490.58
2019-04-11T14:07:30.309Z,101495.33
2019-04-11T14:10:09.275Z,101495.13
2019-04-11T14:12:38.549Z,101488.82
2019-04-11T14:15:11.943Z,101482.98
2019-04-11T14:17:45.048Z,101492.97
2019-04-11T14:20:29.195Z,101496.07
2019-04-11T14:23:05.347Z,101482.81
2019-04-11T14:25:48.085Z,101494.95
2019-04-11T14:28:18.035Z,101497.42
2019-04-11T14:30:51.745Z,101481.61
2019-04-11T14:33:18.378Z,101481.70
2019-04-11T14:36:00.334Z,101484.17
2019-04-11T14:38:32.041Z,101481.42
2019-04-11T14:41:09.823Z,101481.36
2019-04-11T14:43:43.815Z,101480.64
2019-04-11T14:46:15.859Z,101477.67
2019-04-11T14:48:48.820Z,101472.03
2019-04-11T14:51:27.867Z,101481.70
2019-04-11T14:54:00.622Z,101474.52
2019-04-11T14:56:33.394Z,101472.26
2019-04-11T14:59:23.889Z,101476.52
2019-04-11T15:01:53.226Z,101468.94
2019-04-11T15:04:26.230Z,101468.99
2019-04-11T15:06:56.186Z,101468.30
2019-04-11T15:09:41.162Z,101466.36
2019-04-11T15:12:17.835Z,101472.14
2019-04-11T15:14:51.936Z,101470.90
2019-04-11T15:17:21.909Z,101466.38
2019-04-11T15:20:02.656Z,101468.29
2019-04-11T15:22:50.738Z,101471.27
2019-04-11T15:25:20.679Z,101461.45
2019-04-11T15:27:56.361Z,101478.74
2019-04-11T15:30:38.450Z,101461.44
2019-04-11T15:33:24.917Z,101464.76
2019-04-11T15:35:58.595Z,101466.39
2019-04-11T15:38:45.499Z,101467.25
2019-04-11T15:41:13.822Z,101465.19
2019-04-11T15:43:59.700Z,101472.16
2019-04-11T15:46:29.782Z,101475.15
2019-04-11T15:49:21.893Z,101472.83
2019-04-11T15:51:47.775Z,101469.86
2019-04-11T15:54:17.750Z,101471.48
2019-04-11T15:56:53.398Z,101473.23
2019-04-11T15:59:38.745Z,101467.64
2019-04-11T16:02:09.015Z,101470.51
2019-04-11T16:04:47.807Z,101481.94
2019-04-11T16:07:37.581Z,101484.56
2019-04-11T16:10:07.237Z,101480.62
2019-04-11T16:12:55.654Z,101484.06
2019-04-11T16:15:25.892Z,101490.81
2019-04-11T16:17:57.932Z,101492.08
2019-04-11T16:20:26.160Z,101484.45
2019-04-11T16:22:56.109Z,101493.30
2019-04-11T16:25:24.422Z,101490.09
2019-04-11T16:28:10.924Z,101489.36
2019-04-11T16:30:43.616Z,101485.56
2019-04-11T16:33:13.543Z,101484.11
2019-04-11T16:35:49.766Z,101500.12
2019-04-11T16:38:29.012Z,101495.34
2019-04-11T16:41:07.852Z,101504.69
2019-04-11T16:43:37.561Z,101500.98
2019-04-11T16:46:24.580Z,101498.50
2019-04-11T16:48:55.650Z,101516.55
2019-04-11T16:51:30.690Z,101511.77
2019-04-11T16:53:52.574Z,101512.61
2019-04-11T16:56:21.359Z,101517.76
2019-04-11T16:58:50.287Z,101517.16
2019-04-11T17:01:20.751Z,101514.17
2019-04-11T17:03:48.744Z,101519.27
2019-04-11T17:06:36.913Z,101518.44
2019-04-11T17:09:14.235Z,101516.77
2019-04-11T17:11:42.519Z,101518.66
2019-04-11T17:14:11.978Z,101517.41
2019-04-11T17:16:40.305Z,101525.28
2019-04-11T17:19:08.623Z,101516.80
2019-04-11T17:21:43.126Z,101520.63
2019-04-11T17:24:07.317Z,101533.97
2019-04-11T17:26:35.622Z,101521.43
2019-04-11T17:29:03.949Z,101524.86
2019-04-11T17:31:33.213Z,101535.36
2019-04-11T17:34:02.425Z,101524.70
2019-04-11T17:36:33.518Z,101527.80
2019-04-11T17:39:01.100Z,101523.84
2019-04-11T17:41:29.415Z,101532.41
2019-04-11T17:43:57.719Z,101535.95
2019-04-11T17:46:26.927Z,101546.78
2019-04-11T17:48:56.122Z,101535.30
2019-04-11T17:51:24.525Z,101539.58
2019-04-11T17:53:54.985Z,101544.91
2019-04-11T17:56:24.816Z,101546.44
2019-04-11T17:58:52.847Z,101552.86
2019-04-11T18:01:21.214Z,101548.80
2019-04-11T18:03:49.612Z,101557.70
2019-04-11T18:06:18.012Z,101555.52
2019-04-11T18:08:46.724Z,101552.05
2019-04-11T18:11:15.526Z,101551.43
2019-04-11T18:13:43.842Z,101561.38
2019-04-11T18:16:12.161Z,101556.48
2019-04-11T18:18:40.480Z,101558.69
2019-04-11T18:21:08.864Z,101557.80
2019-04-11T18:23:37.519Z,101558.48
2019-04-11T18:26:05.968Z,101563.81
2019-04-11T18:28:34.253Z,101564.50
2019-04-11T18:31:02.592Z,101567.81
2019-04-11T18:33:32.295Z,101574.12
2019-04-11T18:36:02.212Z,101577.42
2019-04-11T18:38:32.062Z,101575.93
2019-04-11T18:41:01.054Z,101580.66
2019-04-11T18:43:29.388Z,101577.42
2019-04-11T18:45:57.684Z,101578.10
2019-04-11T18:48:26.511Z,101579.23
2019-04-11T18:50:54.860Z,101585.89
2019-04-11T18:53:23.177Z,101585.61
2019-04-11T18:55:51.483Z,101588.83
2019-04-11T18:58:19.781Z,101592.36
2019-04-11T19:00:48.427Z,101591.89
2019-04-11T19:03:17.034Z,101596.41
2019-04-11T19:05:45.688Z,101598.75
2019-04-11T19:08:13.976Z,101594.35
2019-04-11T19:10:42.917Z,101592.84
2019-04-11T19:13:12.329Z,101592.48
2019-04-11T19:15:40.641Z,101600.69
2019-04-11T19:18:09.011Z,101598.43
2019-04-11T19:20:37.330Z,101599.18
2019-04-11T19:23:07.638Z,101593.20
2019-04-11T19:25:35.640Z,101598.75
2019-04-11T19:28:03.941Z,101597.77
2019-04-11T19:30:32.258Z,101609.27
2019-04-11T19:33:00.569Z,101608.80
2019-04-11T19:35:28.877Z,101600.47
2019-04-11T19:37:57.877Z,101610.45
2019-04-11T19:40:26.474Z,101605.34
2019-04-11T19:42:54.798Z,101602.37
2019-04-11T19:45:23.376Z,101592.30
2019-04-11T19:47:52.255Z,101599.12
2019-04-11T19:50:21.221Z,101600.03
2019-04-11T19:52:49.664Z,101602.17
2019-04-11T19:55:34.500Z,101599.56
2019-04-11T19:58:01.660Z,101599.12
2019-04-11T20:00:30.501Z,101603.33
2019-04-11T20:02:58.800Z,101603.17
2019-04-11T20:05:27.176Z,101598.89
2019-04-11T20:07:55.535Z,101602.65
2019-04-11T20:10:23.840Z,101600.52
2019-04-11T20:12:52.172Z,101602.02
2019-04-11T20:15:20.771Z,101604.03
2019-04-11T20:17:52.036Z,101600.70
2019-04-11T20:20:19.678Z,101600.81
2019-04-11T20:22:58.410Z,101599.62
2019-04-11T20:25:17.998Z,101607.94
2019-04-11T20:27:48.161Z,101604.37
2019-04-11T20:30:16.540Z,101601.58
2019-04-11T20:32:44.827Z,101609.23
2019-04-11T20:35:13.641Z,101604.67
2019-04-11T20:37:44.600Z,101599.91
2019-04-11T20:40:12.432Z,101600.94
2019-04-11T20:42:40.969Z,101602.36
2019-04-11T20:45:09.523Z,101599.11
2019-04-11T20:47:37.821Z,101600.77
2019-04-11T20:50:07.545Z,101596.37
2019-04-11T20:52:36.158Z,101591.15
2019-04-11T20:55:08.979Z,101596.77
2019-04-11T20:57:35.978Z,101596.88
2019-04-11T21:00:06.224Z,101597.98
2019-04-11T21:02:34.816Z,101595.76
2019-04-11T21:05:03.119Z,101597.25
2019-04-11T21:07:32.518Z,101601.08
2019-04-11T21:10:03.722Z,101596.72
2019-04-11T21:12:31.189Z,101599.97
2019-04-11T21:14:59.777Z,101601.02
2019-04-11T21:17:28.061Z,101597.76
2019-04-11T21:19:56.376Z,101597.77
2019-04-11T21:22:24.820Z,101608.84
2019-04-11T21:24:53.275Z,101607.18
2019-04-11T21:27:21.595Z,101602.90
2019-04-11T21:29:49.903Z,101603.45
2019-04-11T21:32:18.544Z,101607.10
2019-04-11T21:34:47.112Z,101612.39
2019-04-11T21:37:15.424Z,101606.80
2019-04-11T21:39:43.736Z,101609.58
2019-04-11T21:42:12.033Z,101613.89
2019-04-11T21:44:40.361Z,101618.17
2019-04-11T21:47:09.008Z,101617.63
2019-04-11T21:49:37.766Z,101619.66
2019-04-11T21:52:06.089Z,101618.91
2019-04-11T21:54:34.379Z,101619.83
2019-04-11T21:57:03.032Z,101621.32
2019-04-11T21:59:31.346Z,101625.81
2019-04-11T22:01:59.813Z,101628.53
2019-04-11T22:04:31.034Z,101629.91
2019-04-11T22:07:00.671Z,101626.91
2019-04-11T22:09:28.632Z,101627.75
2019-04-11T22:11:56.942Z,101628.11
2019-04-11T22:14:25.702Z,101620.02
2019-04-11T22:16:55.050Z,101620.27
2019-04-11T22:19:23.763Z,101619.63
2019-04-11T22:21:52.048Z,101621.80
2019-04-11T22:24:20.345Z,101622.63
2019-04-11T22:26:50.627Z,101619.54
2019-04-11T22:29:18.704Z,101624.94
2019-04-11T22:31:47.010Z,101624.39
2019-04-11T22:34:29.080Z,101624.55
2019-04-11T22:36:59.603Z,101623.97
2019-04-11T22:39:28.950Z,101631.22
2019-04-11T22:41:57.509Z,101631.22
2019-04-11T22:44:25.847Z,101628.77
2019-04-11T22:46:54.136Z,101630.82
2019-04-11T22:49:22.441Z,101626.14
2019-04-11T22:51:50.738Z,101631.58
2019-04-11T22:54:19.316Z,101633.91
2019-04-11T22:56:47.611Z,101633.91
2019-04-11T22:59:15.935Z,101639.97
2019-04-11T23:01:46.923Z,101633.05
2019-04-11T23:04:17.152Z,101630.51
2019-04-11T23:06:47.205Z,101630.73
2019-04-11T23:09:16.591Z,101633.42
2019-04-11T23:11:45.377Z,101630.17
2019-04-11T23:14:15.790Z,101626.17
2019-04-11T23:16:44.211Z,101628.31
2019-04-11T23:19:14.357Z,101622.80
2019-04-11T23:21:42.769Z,101625.58
2019-04-11T23:24:12.248Z,101626.34
2019-04-11T23:26:40.699Z,101617.93
2019-04-11T23:29:08.997Z,101624.47
2019-04-11T23:31:37.323Z,101625.61
2019-04-11T23:34:05.614Z,101624.30
2019-04-11T23:36:33.929Z,101624.66
2019-04-11T23:39:02.224Z,101635.22
2019-04-11T23:41:30.546Z,101631.49
2019-04-11T23:43:58.835Z,101637.91
2019-04-11T23:46:27.437Z,101634.47
2019-04-11T23:48:55.761Z,101638.39
2019-04-11T23:51:26.340Z,101642.78
2019-04-11T23:53:54.052Z,101641.84
2019-04-11T23:56:22.336Z,101645.03
2019-04-11T23:58:50.649Z,101648.48
